Time;durP1;ratioP1;P1;durP2;ratioP2;P2;SDS_P1;SDS_P2;PMS_P1;PMS_P2;Temp;Humidity;BMP_temperature;BMP_pressure;BME280_temperature;BME280_humidity;BME280_pressure;Samples;Min_cycle;Max_cycle;Signal;HPM_P1;HPM_P2
2024/01/19 00:00:47;;;;;;;;;;;;;;;2.62;59.01;100344.25;4977350;28;6984;-72
2024/01/19 00:03:12;;;;;;;;;;;;;;;2.64;58.84;100346.88;4962884;28;7165;-73
2024/01/19 00:05:38;;;;;;;;;;;;;;;2.63;59.54;100351.06;4979837;28;6840;-72
2024/01/19 00:08:04;;;;;;;;;;;;;;;2.61;59.53;100352.63;4981703;28;6776;-71
2024/01/19 00:10:33;;;;;;;;;;;;;;;2.58;59.14;100352.34;4962118;28;7287;-72
2024/01/19 00:12:59;;;;;;;;;;;;;;;2.56;59.89;100355.50;4959807;28;7001;-73
2024/01/19 00:15:24;;;;;;;;;;;;;;;2.53;59.16;100356.19;4983896;28;6950;-71
2024/01/19 00:17:50;;;;;;;;;;;;;;;2.49;59.39;100351.63;4966064;28;6776;-71
2024/01/19 00:20:16;;;;;;;;;;;;;;;2.50;59.47;100358.44;4980060;28;6781;-71
2024/01/19 00:22:42;;;;;;;;;;;;;;;2.50;60.13;100359.34;4964392;28;6978;-70
2024/01/19 00:25:07;;;;;;;;;;;;;;;2.51;59.61;100357.69;4964609;28;6784;-71
2024/01/19 00:27:33;;;;;;;;;;;;;;;2.53;59.92;100356.19;4963831;28;6959;-72
2024/01/19 00:29:58;;;;;;;;;;;;;;;2.53;59.32;100362.88;4965394;28;7002;-71
2024/01/19 00:32:24;;;;;;;;;;;;;;;2.52;59.27;100362.00;4963990;28;7037;-72
2024/01/19 00:34:50;;;;;;;;;;;;;;;2.51;60.27;100372.84;4983152;28;6776;-72
2024/01/19 00:37:15;;;;;;;;;;;;;;;2.52;59.92;100379.72;4946745;28;6942;-72
2024/01/19 00:39:41;;;;;;;;;;;;;;;2.55;60.15;100377.41;4964004;28;6836;-73
2024/01/19 00:42:07;;;;;;;;;;;;;;;2.57;60.52;100386.00;4980902;28;6740;-71
2024/01/19 00:44:33;;;;;;;;;;;;;;;2.59;59.59;100392.06;4949337;28;6976;-72
2024/01/19 00:46:59;;;;;;;;;;;;;;;2.63;60.11;100394.09;4959949;28;6780;-73
2024/01/19 00:49:25;;;;;;;;;;;;;;;2.64;59.87;100380.69;4962253;28;6915;-73
2024/01/19 00:51:50;;;;;;;;;;;;;;;2.67;60.08;100392.69;4958239;28;7047;-73
2024/01/19 00:54:16;;;;;;;;;;;;;;;2.69;59.73;100396.22;4959617;28;7117;-73
2024/01/19 00:56:42;;;;;;;;;;;;;;;2.70;60.17;100392.94;4956326;28;7213;-73
2024/01/19 00:59:08;;;;;;;;;;;;;;;2.72;60.32;100393.06;4978771;28;6956;-73
2024/01/19 01:01:34;;;;;;;;;;;;;;;2.74;59.97;100394.06;4959321;28;6800;-73
2024/01/19 01:04:01;;;;;;;;;;;;;;;2.74;60.09;100394.94;4958336;28;7248;-73
2024/01/19 01:06:27;;;;;;;;;;;;;;;2.75;59.66;100393.31;4960662;28;7672;-73
2024/01/19 01:08:53;;;;;;;;;;;;;;;2.77;60.61;100395.19;4960946;28;7346;-73
2024/01/19 01:11:21;;;;;;;;;;;;;;;2.81;59.20;100405.56;4975998;28;6856;-73
2024/01/19 01:13:47;;;;;;;;;;;;;;;2.82;59.59;100405.69;4961076;28;6859;-73
2024/01/19 01:16:13;;;;;;;;;;;;;;;2.85;60.15;100403.38;4961102;28;7560;-73
2024/01/19 01:18:39;;;;;;;;;;;;;;;2.86;59.46;100402.63;4957475;28;6892;-73
2024/01/19 01:21:05;;;;;;;;;;;;;;;2.86;60.01;100407.69;4958837;28;6780;-73
2024/01/19 01:23:31;;;;;;;;;;;;;;;2.87;59.62;100406.06;4959598;28;6963;-73
2024/01/19 01:25:57;;;;;;;;;;;;;;;2.88;59.74;100408.69;4973385;28;6792;-73
2024/01/19 01:28:22;;;;;;;;;;;;;;;2.90;59.48;100419.84;4975073;28;6875;-73
2024/01/19 01:30:48;;;;;;;;;;;;;;;2.92;60.20;100427.53;4962277;28;7231;-73
2024/01/19 01:33:13;;;;;;;;;;;;;;;2.94;59.87;100432.72;4956057;28;6792;-73
2024/01/19 01:35:39;;;;;;;;;;;;;;;2.95;60.52;100435.41;4940107;28;6966;-73
2024/01/19 01:38:05;;;;;;;;;;;;;;;2.98;60.16;100448.28;4977258;28;6772;-73
2024/01/19 01:40:31;;;;;;;;;;;;;;;3.01;59.66;100450.19;4953578;28;6962;-73
2024/01/19 01:43:02;;;;;;;;;;;;;;;3.02;60.03;100457.03;4971684;28;7413;-73
2024/01/19 01:45:29;;;;;;;;;;;;;;;3.05;59.82;100457.25;4959910;28;7020;-73
2024/01/19 01:47:56;;;;;;;;;;;;;;;3.07;60.62;100463.31;4960191;28;7212;-73
2024/01/19 01:50:23;;;;;;;;;;;;;;;3.07;59.76;100465.84;4972486;28;6796;-73
2024/01/19 01:52:52;;;;;;;;;;;;;;;3.09;59.99;100460.91;4974242;28;6883;-73
2024/01/19 01:55:18;;;;;;;;;;;;;;;3.08;59.52;100465.09;4958947;28;6804;-74
2024/01/19 01:57:45;;;;;;;;;;;;;;;3.09;59.77;100469.41;4974794;28;6812;-73
2024/01/19 02:00:14;;;;;;;;;;;;;;;3.10;60.21;100475.34;4958019;28;6991;-73
2024/01/19 02:02:40;;;;;;;;;;;;;;;3.12;59.45;100479.78;4958458;28;6808;-73
2024/01/19 02:05:06;;;;;;;;;;;;;;;3.14;60.59;100483.31;4960016;28;7192;-73
2024/01/19 02:07:32;;;;;;;;;;;;;;;3.15;60.20;100474.94;4959028;28;7058;-73
2024/01/19 02:09:58;;;;;;;;;;;;;;;3.17;59.36;100487.75;4959162;28;7523;-73
2024/01/19 02:12:25;;;;;;;;;;;;;;;3.19;59.81;100479.50;4972051;28;6777;-73
2024/01/19 02:14:51;;;;;;;;;;;;;;;3.20;59.88;100477.84;4976292;28;6868;-73
2024/01/19 02:17:16;;;;;;;;;;;;;;;3.21;60.62;100483.81;4957682;28;6979;-73
2024/01/19 02:19:42;;;;;;;;;;;;;;;3.22;60.08;100486.44;4962394;28;7214;-73
2024/01/19 02:22:08;;;;;;;;;;;;;;;3.24;59.59;100477.34;4958991;28;6772;-73
2024/01/19 02:24:35;;;;;;;;;;;;;;;3.27;60.00;100481.72;4958220;28;7056;-73
2024/01/19 02:27:02;;;;;;;;;;;;;;;3.29;59.66;100481.09;4960136;28;6868;-73
2024/01/19 02:29:28;;;;;;;;;;;;;;;3.33;59.71;100477.16;4958139;28;6785;-73
2024/01/19 02:31:54;;;;;;;;;;;;;;;3.36;59.69;100485.00;4968395;28;7071;-74
2024/01/19 02:34:20;;;;;;;;;;;;;;;3.37;59.91;100486.75;4956783;28;7423;-73
2024/01/19 02:36:45;;;;;;;;;;;;;;;3.41;60.32;100487.88;4958687;28;7336;-73
2024/01/19 02:39:11;;;;;;;;;;;;;;;3.43;59.81;100491.44;4976820;28;6780;-73
2024/01/19 02:41:39;;;;;;;;;;;;;;;3.46;59.64;100487.47;4956334;28;7080;-73
2024/01/19 02:44:05;;;;;;;;;;;;;;;3.49;60.28;100486.84;4959257;28;6936;-73
2024/01/19 02:46:31;;;;;;;;;;;;;;;3.52;59.93;100492.13;4953300;28;6955;-73
2024/01/19 02:48:56;;;;;;;;;;;;;;;3.56;60.81;100498.31;4943565;28;7288;-73
2024/01/19 02:51:22;;;;;;;;;;;;;;;3.58;59.75;100500.22;4957711;28;6902;-73
2024/01/19 02:53:47;;;;;;;;;;;;;;;3.58;59.89;100497.69;4956721;28;6784;-73
2024/01/19 02:56:13;;;;;;;;;;;;;;;3.60;60.36;100487.69;4977174;28;6927;-73
2024/01/19 02:58:39;;;;;;;;;;;;;;;3.64;60.54;100496.41;4960297;28;7665;-73
2024/01/19 03:01:07;;;;;;;;;;;;;;;3.65;59.79;100499.03;4956825;28;6776;-73
2024/01/19 03:03:32;;;;;;;;;;;;;;;3.66;60.24;100500.81;4959533;28;7100;-73
2024/01/19 03:05:58;;;;;;;;;;;;;;;3.69;60.45;100485.84;4977384;28;6772;-74
2024/01/19 03:08:24;;;;;;;;;;;;;;;3.71;60.45;100491.91;4956326;28;6776;-73
2024/01/19 03:10:49;;;;;;;;;;;;;;;3.73;60.09;100503.06;4978381;28;7733;-74
2024/01/19 03:13:15;;;;;;;;;;;;;;;3.75;60.04;100503.19;4977216;28;7194;-73
2024/01/19 03:15:40;;;;;;;;;;;;;;;3.78;59.72;100508.47;4957817;28;6775;-74
2024/01/19 03:18:06;;;;;;;;;;;;;;;3.79;60.46;100512.78;4956153;28;7198;-74
2024/01/19 03:20:32;;;;;;;;;;;;;;;3.80;59.62;100521.28;4960114;28;6808;-74
2024/01/19 03:22:57;;;;;;;;;;;;;;;3.80;59.86;100516.22;4955511;28;6772;-74
2024/01/19 03:25:23;;;;;;;;;;;;;;;3.82;60.24;100524.81;4946396;28;7291;-74
2024/01/19 03:27:49;;;;;;;;;;;;;;;3.82;60.20;100520.66;4974158;28;6784;-74
2024/01/19 03:30:16;;;;;;;;;;;;;;;3.84;60.33;100520.75;4956653;28;6772;-74
2024/01/19 03:32:42;;;;;;;;;;;;;;;3.86;59.75;100526.81;4966912;28;6984;-74
2024/01/19 03:35:08;;;;;;;;;;;;;;;3.86;59.81;100532.78;4958925;28;7034;-74
2024/01/19 03:37:34;;;;;;;;;;;;;;;3.87;59.55;100536.22;4957683;28;6871;-74
2024/01/19 03:39:59;;;;;;;;;;;;;;;3.88;59.94;100536.31;4977324;28;7118;-74
2024/01/19 03:42:28;;;;;;;;;;;;;;;3.90;59.69;100541.50;4954045;28;6780;-74
2024/01/19 03:44:54;;;;;;;;;;;;;;;3.89;60.08;100535.53;4957590;28;7775;-74
2024/01/19 03:47:19;;;;;;;;;;;;;;;3.91;60.10;100543.28;4941320;28;6824;-74
2024/01/19 03:49:45;;;;;;;;;;;;;;;3.92;59.20;100560.25;4959645;28;7849;-74
2024/01/19 03:52:11;;;;;;;;;;;;;;;3.90;59.92;100554.19;4956888;28;6792;-73
2024/01/19 03:54:36;;;;;;;;;;;;;;;3.87;60.07;100552.31;4971908;28;6973;-74
2024/01/19 03:57:04;;;;;;;;;;;;;;;3.86;59.93;100554.69;4941551;28;6956;-74
2024/01/19 03:59:30;;;;;;;;;;;;;;;3.84;60.20;100562.22;4974675;28;8449;-73
2024/01/19 04:01:56;;;;;;;;;;;;;;;3.81;59.58;100551.81;4945175;28;6954;-74
2024/01/19 04:04:23;;;;;;;;;;;;;;;3.79;59.80;100558.41;4961002;28;7143;-74
2024/01/19 04:06:48;;;;;;;;;;;;;;;3.77;59.42;100554.00;4960605;28;7203;-74
2024/01/19 04:09:17;;;;;;;;;;;;;;;3.75;59.37;100553.91;4960697;28;6781;-74
2024/01/19 04:11:43;;;;;;;;;;;;;;;3.76;59.63;100563.25;4960799;28;7223;-74
2024/01/19 04:14:09;;;;;;;;;;;;;;;3.77;60.07;100559.97;4976639;28;6857;-74
2024/01/19 04:16:35;;;;;;;;;;;;;;;3.76;60.11;100563.25;4941745;28;7261;-73
2024/01/19 04:19:03;;;;;;;;;;;;;;;3.73;60.16;100568.97;4954917;28;6959;-73
2024/01/19 04:21:30;;;;;;;;;;;;;;;3.72;59.58;100572.28;4955113;28;7362;-73
2024/01/19 04:23:59;;;;;;;;;;;;;;;3.70;59.96;100573.81;4955867;28;8698;-73
2024/01/19 04:26:27;;;;;;;;;;;;;;;3.70;59.29;100578.88;4961487;28;6776;-73
2024/01/19 04:28:54;;;;;;;;;;;;;;;3.69;59.66;100573.69;4957578;28;7179;-73
2024/01/19 04:31:19;;;;;;;;;;;;;;;3.69;59.85;100579.66;4977211;28;6794;-73
2024/01/19 04:33:45;;;;;;;;;;;;;;;3.70;60.43;100580.53;4955415;28;8932;-73
2024/01/19 04:36:11;;;;;;;;;;;;;;;3.70;60.43;100588.13;4959183;28;6796;-73
2024/01/19 04:38:36;;;;;;;;;;;;;;;3.66;59.10;100587.00;4976358;28;6768;-73
2024/01/19 04:41:03;;;;;;;;;;;;;;;3.63;59.56;100586.75;4960550;28;7829;-73
2024/01/19 04:43:28;;;;;;;;;;;;;;;3.57;59.79;100589.72;4949959;28;9207;-73
2024/01/19 04:45:54;;;;;;;;;;;;;;;3.51;60.06;100590.88;4976730;28;6852;-73
2024/01/19 04:48:20;;;;;;;;;;;;;;;3.45;59.51;100586.22;4953495;28;8470;-73
2024/01/19 04:50:45;;;;;;;;;;;;;;;3.40;59.23;100593.44;4975406;28;6844;-73
2024/01/19 04:53:11;;;;;;;;;;;;;;;3.34;58.94;100595.47;4978185;28;6775;-73
2024/01/19 04:55:36;;;;;;;;;;;;;;;3.28;59.65;100589.91;4975109;28;6792;-73
2024/01/19 04:58:02;;;;;;;;;;;;;;;3.19;59.92;100587.53;4960210;28;6795;-74
2024/01/19 05:00:28;;;;;;;;;;;;;;;3.12;58.95;100595.38;4960148;28;6784;-73
2024/01/19 05:02:54;;;;;;;;;;;;;;;3.05;59.58;100599.06;4958992;28;6792;-73
2024/01/19 05:05:19;;;;;;;;;;;;;;;3.00;59.20;100595.31;4980313;28;6981;-73
2024/01/19 05:07:45;;;;;;;;;;;;;;;2.95;59.54;100607.59;4956657;28;6780;-73
2024/01/19 05:10:10;;;;;;;;;;;;;;;2.92;59.66;100608.22;4945611;28;7213;-73
2024/01/19 05:12:36;;;;;;;;;;;;;;;2.87;59.78;100613.66;4955665;28;6971;-73
2024/01/19 05:15:02;;;;;;;;;;;;;;;2.83;59.37;100610.00;4966238;28;7695;-73
2024/01/19 05:17:28;;;;;;;;;;;;;;;2.78;60.45;100614.66;4962612;28;6780;-74
2024/01/19 05:19:55;;;;;;;;;;;;;;;2.76;60.17;100618.72;4953957;28;7771;-73
2024/01/19 05:22:20;;;;;;;;;;;;;;;2.74;59.47;100620.22;4962701;28;6956;-73
2024/01/19 05:24:49;;;;;;;;;;;;;;;2.73;59.18;100625.19;4978561;28;6780;-73
2024/01/19 05:27:15;;;;;;;;;;;;;;;2.70;59.62;100622.38;4963505;28;6966;-72
2024/01/19 05:29:41;;;;;;;;;;;;;;;2.69;59.79;100624.03;4963839;28;7414;-71
2024/01/19 05:32:07;;;;;;;;;;;;;;;2.67;59.94;100633.16;4961180;28;6772;-71
2024/01/19 05:34:33;;;;;;;;;;;;;;;2.65;60.21;100639.69;4945879;28;6975;-72
2024/01/19 05:36:58;;;;;;;;;;;;;;;2.62;60.56;100629.34;4960256;28;6776;-72
2024/01/19 05:39:24;;;;;;;;;;;;;;;2.60;59.98;100630.84;4961567;28;6776;-72
2024/01/19 05:41:50;;;;;;;;;;;;;;;2.57;60.11;100648.31;4944107;28;6971;-72
2024/01/19 05:44:15;;;;;;;;;;;;;;;2.53;60.10;100647.19;4960411;28;6772;-73
2024/01/19 05:46:41;;;;;;;;;;;;;;;2.50;59.98;100644.38;4962318;28;6844;-72
2024/01/19 05:49:06;;;;;;;;;;;;;;;2.47;59.52;100656.78;4980008;28;7194;-72
2024/01/19 05:51:32;;;;;;;;;;;;;;;2.45;59.66;100655.75;4963331;28;6764;-71
2024/01/19 05:54:01;;;;;;;;;;;;;;;2.44;60.41;100654.84;4944825;28;6984;-71
2024/01/19 05:56:27;;;;;;;;;;;;;;;2.44;60.11;100661.59;4961784;28;7229;-72
2024/01/19 05:58:53;;;;;;;;;;;;;;;2.42;60.25;100663.97;4962057;28;6792;-72
2024/01/19 06:01:18;;;;;;;;;;;;;;;2.41;59.84;100666.34;4977731;28;6776;-73
2024/01/19 06:03:44;;;;;;;;;;;;;;;2.41;59.48;100671.41;4962724;28;6829;-72
2024/01/19 06:06:10;;;;;;;;;;;;;;;2.40;60.42;100672.19;4962287;28;6840;-74
2024/01/19 06:08:35;;;;;;;;;;;;;;;2.42;60.12;100673.22;4963028;28;6836;-72
2024/01/19 06:11:01;;;;;;;;;;;;;;;2.44;60.62;100680.16;4964191;28;7104;-72
2024/01/19 06:13:27;;;;;;;;;;;;;;;2.46;60.36;100688.78;4975730;28;6760;-71
2024/01/19 06:15:52;;;;;;;;;;;;;;;2.45;60.62;100691.19;4959998;28;6768;-71
2024/01/19 06:18:18;;;;;;;;;;;;;;;2.43;60.28;100688.50;4957003;28;7012;-71
2024/01/19 06:20:44;;;;;;;;;;;;;;;2.41;60.01;100691.66;4960253;28;6788;-71
2024/01/19 06:23:12;;;;;;;;;;;;;;;2.40;60.24;100700.00;4957358;28;7271;-72
2024/01/19 06:25:39;;;;;;;;;;;;;;;2.37;60.54;100705.72;4970573;28;6973;-73
2024/01/19 06:28:06;;;;;;;;;;;;;;;2.33;60.54;100709.63;4955837;28;6800;-73
2024/01/19 06:30:32;;;;;;;;;;;;;;;2.32;60.26;100707.84;4957782;28;6780;-73
2024/01/19 06:32:58;;;;;;;;;;;;;;;2.31;59.94;100708.56;4953760;28;7108;-73
2024/01/19 06:35:24;;;;;;;;;;;;;;;2.30;60.37;100726.19;4962193;28;6953;-74
2024/01/19 06:37:49;;;;;;;;;;;;;;;2.30;60.05;100728.72;4959716;28;6933;-72
2024/01/19 06:40:15;;;;;;;;;;;;;;;2.30;60.56;100731.25;4960972;28;7015;-72
2024/01/19 06:42:44;;;;;;;;;;;;;;;2.31;59.82;100744.00;4947599;28;6958;-72
2024/01/19 06:45:10;;;;;;;;;;;;;;;2.33;60.12;100749.19;4976375;28;7057;-73
2024/01/19 06:47:36;;;;;;;;;;;;;;;2.39;60.08;100758.97;4974998;28;6788;-73
2024/01/19 06:50:01;;;;;;;;;;;;;;;2.46;61.13;100756.22;4957777;28;7150;-73
2024/01/19 06:52:27;;;;;;;;;;;;;;;2.53;61.34;100758.53;4954219;28;7428;-73
2024/01/19 06:54:53;;;;;;;;;;;;;;;2.61;61.44;100752.47;4957022;28;7965;-72
2024/01/19 06:57:18;;;;;;;;;;;;;;;2.68;60.60;100761.47;4968596;28;6930;-72
2024/01/19 06:59:44;;;;;;;;;;;;;;;2.73;61.20;100760.22;4961368;28;6772;-74
2024/01/19 07:02:10;;;;;;;;;;;;;;;2.76;60.40;100762.13;4977748;28;6843;-72
2024/01/19 07:04:36;;;;;;;;;;;;;;;2.76;60.38;100764.66;4978104;28;6989;-73
2024/01/19 07:07:02;;;;;;;;;;;;;;;2.71;59.28;100771.84;4978920;28;6808;-72
2024/01/19 07:09:28;;;;;;;;;;;;;;;2.68;60.18;100775.75;4963964;28;6965;-72
2024/01/19 07:11:53;;;;;;;;;;;;;;;2.63;60.35;100776.28;4954727;28;6784;-72
2024/01/19 07:14:19;;;;;;;;;;;;;;;2.61;59.55;100777.78;4961812;28;6836;-71
2024/01/19 07:16:45;;;;;;;;;;;;;;;2.57;59.73;100777.41;4956030;28;7665;-72
2024/01/19 07:19:11;;;;;;;;;;;;;;;2.57;60.27;100790.91;4961225;28;7025;-73
2024/01/19 07:21:40;;;;;;;;;;;;;;;2.55;60.11;100787.38;4961038;28;6852;-73
2024/01/19 07:24:08;;;;;;;;;;;;;;;2.54;59.52;100785.59;4976288;28;7311;-71
2024/01/19 07:26:34;;;;;;;;;;;;;;;2.49;59.47;100791.88;4969346;28;6807;-71
2024/01/19 07:29:04;;;;;;;;;;;;;;;2.43;60.35;100801.50;4941959;28;6971;-73
2024/01/19 07:31:31;;;;;;;;;;;;;;;2.39;59.31;100812.09;4952198;28;6991;-72
2024/01/19 07:33:56;;;;;;;;;;;;;;;2.33;59.99;100804.84;4967610;28;6796;-72
2024/01/19 07:36:22;;;;;;;;;;;;;;;2.26;59.42;100813.56;4981665;28;6776;-72
2024/01/19 07:38:48;;;;;;;;;;;;;;;2.21;60.15;100815.69;4982068;28;6852;-72
2024/01/19 07:41:13;;;;;;;;;;;;;;;2.19;59.32;100819.72;4967272;28;7033;-72
2024/01/19 07:43:39;;;;;;;;;;;;;;;2.16;59.73;100826.16;4978990;28;7232;-71
2024/01/19 07:46:05;;;;;;;;;;;;;;;2.14;59.90;100830.19;4962110;28;7003;-74
2024/01/19 07:48:33;;;;;;;;;;;;;;;2.11;59.58;100829.88;4960401;28;6840;-74
2024/01/19 07:50:58;;;;;;;;;;;;;;;2.10;60.58;100836.59;4940810;28;7033;-74
2024/01/19 07:53:24;;;;;;;;;;;;;;;2.07;60.27;100837.22;4980399;28;7313;-74
2024/01/19 07:55:50;;;;;;;;;;;;;;;2.07;59.83;100843.91;4953605;28;8051;-74
2024/01/19 07:58:16;;;;;;;;;;;;;;;2.08;60.44;100843.19;4952880;28;7495;-74
2024/01/19 08:00:41;;;;;;;;;;;;;;;2.11;60.58;100850.13;4952544;28;6983;-74
2024/01/19 08:03:08;;;;;;;;;;;;;;;2.13;61.06;100841.06;4943688;28;7286;-74
2024/01/19 08:05:34;;;;;;;;;;;;;;;2.17;60.82;100856.66;4962279;28;6784;-74
2024/01/19 08:07:59;;;;;;;;;;;;;;;2.21;60.80;100851.09;4960102;28;6828;-74
2024/01/19 08:10:25;;;;;;;;;;;;;;;2.28;60.40;100861.75;4959681;28;6891;-74
2024/01/19 08:12:50;;;;;;;;;;;;;;;2.34;61.03;100870.78;4975500;28;7730;-74
2024/01/19 08:15:16;;;;;;;;;;;;;;;2.42;61.10;100865.50;4948973;28;6997;-73
2024/01/19 08:17:42;;;;;;;;;;;;;;;2.47;60.46;100864.25;4954486;28;6832;-73
2024/01/19 08:20:11;;;;;;;;;;;;;;;2.53;60.64;100874.94;4962120;28;6796;-74
2024/01/19 08:22:37;;;;;;;;;;;;;;;2.55;60.44;100877.56;4961972;28;6804;-74
2024/01/19 08:25:04;;;;;;;;;;;;;;;2.56;60.17;100881.88;4955754;28;6788;-74
2024/01/19 08:27:30;;;;;;;;;;;;;;;2.55;60.80;100878.47;4961318;28;6937;-74
2024/01/19 08:29:56;;;;;;;;;;;;;;;2.56;60.19;100890.38;4959319;28;6832;-73
2024/01/19 08:32:23;;;;;;;;;;;;;;;2.58;60.41;100893.06;4961371;28;7142;-74
2024/01/19 08:34:49;;;;;;;;;;;;;;;2.60;60.13;100910.13;4955000;28;7790;-73
2024/01/19 08:37:15;;;;;;;;;;;;;;;2.68;60.47;100904.84;4970076;28;7207;-74
2024/01/19 08:39:40;;;;;;;;;;;;;;;2.74;60.25;100910.47;4957252;28;6790;-74
2024/01/19 08:42:06;;;;;;;;;;;;;;;2.77;60.14;100914.16;4957965;28;6772;-74
2024/01/19 08:44:32;;;;;;;;;;;;;;;2.79;60.54;100911.75;4976899;28;7180;-74
2024/01/19 08:46:58;;;;;;;;;;;;;;;2.78;59.91;100923.53;4957946;28;7256;-74
2024/01/19 08:49:27;;;;;;;;;;;;;;;2.80;60.49;100918.63;4958521;28;7388;-74
2024/01/19 08:51:53;;;;;;;;;;;;;;;2.80;59.80;100915.19;4940435;28;8263;-73
2024/01/19 08:54:19;;;;;;;;;;;;;;;2.80;59.63;100911.03;4976197;28;6800;-74
2024/01/19 08:56:45;;;;;;;;;;;;;;;2.80;59.62;100908.50;4959049;28;7042;-74
2024/01/19 08:59:12;;;;;;;;;;;;;;;2.80;59.50;100921.16;4958259;28;7111;-74
2024/01/19 09:01:38;;;;;;;;;;;;;;;2.85;59.73;100930.00;4957727;28;6944;-74
2024/01/19 09:04:04;;;;;;;;;;;;;;;2.87;60.11;100922.56;4951496;28;6991;-74
2024/01/19 09:06:29;;;;;;;;;;;;;;;2.91;59.47;100935.63;4975470;28;7145;-74
2024/01/19 09:09:01;;;;;;;;;;;;;;;2.94;60.30;100939.19;4958011;28;6780;-74
2024/01/19 09:11:26;;;;;;;;;;;;;;;2.95;59.92;100940.94;4958335;28;6867;-74
2024/01/19 09:13:52;;;;;;;;;;;;;;;2.97;59.43;100944.50;4946201;28;7202;-74
2024/01/19 09:16:18;;;;;;;;;;;;;;;3.00;59.68;100947.31;4942675;28;7295;-74
2024/01/19 09:18:44;;;;;;;;;;;;;;;3.08;59.99;100950.50;4958693;28;7214;-74
2024/01/19 09:21:18;;;;;;;;;;;;;;;3.15;60.11;100965.50;4958237;28;7810;-74
2024/01/19 09:23:44;;;;;;;;;;;;;;;3.24;60.30;100978.97;4961405;28;6800;-74
2024/01/19 09:26:22;;;;;;;;;;;;;;;3.30;59.58;100976.94;4956912;28;6768;-74
2024/01/19 09:28:49;;;;;;;;;;;;;;;3.39;59.35;100984.47;4957164;28;6970;-73
2024/01/19 09:31:15;;;;;;;;;;;;;;;3.46;59.20;100988.41;4977291;28;6796;-74
2024/01/19 09:33:41;;;;;;;;;;;;;;;3.50;59.36;100981.97;4976867;28;6820;-74
2024/01/19 09:36:08;;;;;;;;;;;;;;;3.54;59.47;100991.59;4972860;28;6970;-74
2024/01/19 09:38:35;;;;;;;;;;;;;;;3.60;59.64;100994.66;4962106;28;6796;-74
2024/01/19 09:41:22;;;;;;;;;;;;;;;3.63;59.23;100999.97;4960282;28;6808;-74
2024/01/19 09:43:51;;;;;;;;;;;;;;;3.68;59.40;101002.91;4975269;28;7172;-74
2024/01/19 09:46:21;;;;;;;;;;;;;;;3.74;59.24;101006.84;4967111;28;7102;-75
2024/01/19 09:49:28;;;;;;;;;;;;;;;3.83;59.38;101008.41;4958382;28;7066;-74
2024/01/19 09:52:02;;;;;;;;;;;;;;;3.85;59.23;101011.94;4950751;28;7198;-74
2024/01/19 09:54:33;;;;;;;;;;;;;;;3.87;58.50;101023.13;4959073;28;7013;-74
2024/01/19 09:57:03;;;;;;;;;;;;;;;3.86;58.71;101026.41;4966208;28;6833;-74
2024/01/19 09:59:31;;;;;;;;;;;;;;;3.87;58.96;101034.16;4977948;28;6931;-74
2024/01/19 10:01:58;;;;;;;;;;;;;;;3.90;58.90;101036.06;4959800;28;6796;-74
2024/01/19 10:04:25;;;;;;;;;;;;;;;3.93;59.40;101041.38;4956902;28;6860;-74
2024/01/19 10:06:52;;;;;;;;;;;;;;;3.94;58.78;101038.09;4958252;28;6923;-74
2024/01/19 10:09:19;;;;;;;;;;;;;;;3.97;58.84;101038.38;4941574;28;6991;-74
2024/01/19 10:11:54;;;;;;;;;;;;;;;3.99;58.45;101044.44;4957525;28;6926;-74
2024/01/19 10:14:21;;;;;;;;;;;;;;;4.00;58.42;101046.22;4973053;28;7162;-74
2024/01/19 10:16:53;;;;;;;;;;;;;;;4.03;58.50;101043.94;4960493;28;7015;-74
2024/01/19 10:19:22;;;;;;;;;;;;;;;4.08;58.58;101054.47;4972904;28;6792;-74
2024/01/19 10:21:50;;;;;;;;;;;;;;;4.13;58.44;101059.94;4950850;28;7964;-74
2024/01/19 10:24:19;;;;;;;;;;;;;;;4.17;58.67;101067.94;4975768;28;7890;-74
2024/01/19 10:26:57;;;;;;;;;;;;;;;4.26;58.72;101070.38;4951738;28;7020;-74
2024/01/19 10:29:23;;;;;;;;;;;;;;;4.33;58.77;101065.81;4957977;28;7851;-73
2024/01/19 10:31:54;;;;;;;;;;;;;;;4.39;58.11;101071.41;4958462;28;6990;-74
2024/01/19 10:34:23;;;;;;;;;;;;;;;4.46;58.16;101073.72;4943658;28;6982;-74
2024/01/19 10:36:51;;;;;;;;;;;;;;;4.54;58.20;101070.16;4976208;28;6780;-73
2024/01/19 10:39:25;;;;;;;;;;;;;;;4.62;58.17;101078.41;4955270;28;7042;-74
2024/01/19 10:42:06;;;;;;;;;;;;;;;4.69;58.43;101084.88;4939830;28;6972;-74
2024/01/19 10:44:33;;;;;;;;;;;;;;;4.76;58.47;101082.06;4959128;28;6864;-73
2024/01/19 10:46:59;;;;;;;;;;;;;;;4.85;58.10;101081.94;4956412;28;7324;-73
2024/01/19 10:49:25;;;;;;;;;;;;;;;4.94;57.95;101084.34;4955584;28;7014;-74
2024/01/19 10:51:51;;;;;;;;;;;;;;;5.02;57.93;101090.94;4968171;28;8487;-73
2024/01/19 10:54:25;;;;;;;;;;;;;;;5.12;57.97;101080.78;4958466;28;6784;-73
2024/01/19 10:57:06;;;;;;;;;;;;;;;5.22;57.89;101082.38;4961742;28;7206;-74
2024/01/19 10:59:33;;;;;;;;;;;;;;;5.30;57.89;101083.00;4949436;28;7692;-74
2024/01/19 11:02:03;;;;;;;;;;;;;;;5.39;57.36;101078.66;4953284;28;7360;-74
2024/01/19 11:04:29;;;;;;;;;;;;;;;5.51;57.89;101080.41;4951944;28;8563;-74
2024/01/19 11:06:55;;;;;;;;;;;;;;;5.59;57.24;101074.25;4978438;28;6776;-73
2024/01/19 11:09:21;;;;;;;;;;;;;;;5.68;57.03;101072.44;4960589;28;7296;-73
2024/01/19 11:11:58;;;;;;;;;;;;;;;5.79;56.90;101075.81;4946606;28;7176;-73
2024/01/19 11:14:26;;;;;;;;;;;;;;;5.94;57.05;101077.78;4962693;28;7269;-73
2024/01/19 11:16:54;;;;;;;;;;;;;;;6.08;56.36;101072.13;4965975;28;7386;-75
2024/01/19 11:19:23;;;;;;;;;;;;;;;6.21;56.06;101076.53;4964020;28;6963;-74
2024/01/19 11:21:49;;;;;;;;;;;;;;;6.37;55.73;101068.38;4983223;28;6804;-76
2024/01/19 11:24:19;;;;;;;;;;;;;;;6.54;55.77;101073.88;4982413;28;6764;-76
2024/01/19 11:27:05;;;;;;;;;;;;;;;6.73;56.00;101072.69;4968331;28;6852;-76
2024/01/19 11:29:42;;;;;;;;;;;;;;;6.95;55.37;101072.59;4952060;28;7218;-76
2024/01/19 11:32:10;;;;;;;;;;;;;;;7.12;54.70;101070.41;4977020;28;6928;-74
2024/01/19 11:34:41;;;;;;;;;;;;;;;7.30;54.14;101074.28;4957633;28;7050;-77
2024/01/19 11:37:46;;;;;;;;;;;;;;;7.54;54.34;101086.13;4981697;28;7456;-77
2024/01/19 11:40:24;;;;;;;;;;;;;;;7.78;53.34;101079.31;4978938;28;6809;-75
2024/01/19 11:42:49;;;;;;;;;;;;;;;8.01;53.05;101074.94;5001682;28;6804;-74
2024/01/19 11:45:27;;;;;;;;;;;;;;;8.19;53.18;101065.97;4985510;28;6979;-75
2024/01/19 11:47:56;;;;;;;;;;;;;;;8.29;52.58;101061.50;5002858;28;7010;-74
2024/01/19 11:50:44;;;;;;;;;;;;;;;8.47;52.09;101062.75;4991582;28;7134;-74
2024/01/19 11:53:14;;;;;;;;;;;;;;;8.65;51.61;101062.25;4980259;28;7485;-74
2024/01/19 11:55:43;;;;;;;;;;;;;;;8.82;50.71;101050.56;4992608;28;6923;-74
2024/01/19 11:58:27;;;;;;;;;;;;;;;9.04;49.90;101054.53;4992814;28;7164;-74
2024/01/19 12:00:58;;;;;;;;;;;;;;;9.16;49.54;101060.44;5000256;28;6980;-76
2024/01/19 12:03:24;;;;;;;;;;;;;;;9.28;49.40;101067.13;4979896;28;7243;-74
2024/01/19 12:05:52;;;;;;;;;;;;;;;9.35;48.26;101070.94;4965826;28;7279;-76
2024/01/19 12:08:17;;;;;;;;;;;;;;;9.39;48.13;101067.81;4979545;28;6865;-74
2024/01/19 12:10:43;;;;;;;;;;;;;;;9.46;48.51;101072.50;4974070;28;6784;-74
2024/01/19 12:13:09;;;;;;;;;;;;;;;9.58;48.43;101078.41;5000030;28;7124;-73
2024/01/19 12:15:35;;;;;;;;;;;;;;;9.71;47.64;101074.06;5000516;28;7205;-74
2024/01/19 12:18:05;;;;;;;;;;;;;;;9.78;47.19;101071.09;4998272;28;6904;-74
2024/01/19 12:20:31;;;;;;;;;;;;;;;9.75;46.32;101075.13;4977015;28;7167;-76
2024/01/19 12:22:57;;;;;;;;;;;;;;;9.40;47.00;101084.94;4988873;28;7306;-75
2024/01/19 12:25:25;;;;;;;;;;;;;;;8.83;47.18;101085.56;4970108;28;6985;-71
2024/01/19 12:28:06;;;;;;;;;;;;;;;8.27;47.83;101078.41;4974336;28;6784;-73
2024/01/19 12:30:35;;;;;;;;;;;;;;;7.84;48.36;101089.97;4961478;28;6863;-73
2024/01/19 12:33:26;;;;;;;;;;;;;;;7.44;49.14;101079.50;4976335;28;6836;-73
2024/01/19 12:36:13;;;;;;;;;;;;;;;7.09;49.81;101086.34;4942254;28;7150;-73
2024/01/19 12:38:41;;;;;;;;;;;;;;;6.84;49.50;101083.66;4957093;28;7659;-74
2024/01/19 12:41:15;;;;;;;;;;;;;;;6.66;50.13;101082.41;4976572;28;6980;-74
2024/01/19 12:43:41;;;;;;;;;;;;;;;6.53;50.39;101084.84;4979286;28;6804;-73
2024/01/19 12:46:08;;;;;;;;;;;;;;;6.39;50.88;101078.69;4960279;28;6860;-73
2024/01/19 12:48:35;;;;;;;;;;;;;;;6.29;50.78;101076.22;4962895;28;7932;-73
2024/01/19 12:51:06;;;;;;;;;;;;;;;6.18;50.86;101081.38;4956410;28;6972;-73
2024/01/19 12:53:33;;;;;;;;;;;;;;;6.09;51.29;101078.13;4976837;28;8821;-73
2024/01/19 12:56:25;;;;;;;;;;;;;;;6.02;51.52;101081.84;4950623;28;9624;-73
2024/01/19 12:58:52;;;;;;;;;;;;;;;5.96;51.90;101078.81;4960314;28;6811;-74